Time;durP1;ratioP1;P1;durP2;ratioP2;P2;SDS_P1;SDS_P2;PMS_P1;PMS_P2;Temp;Humidity;BMP_temperature;BMP_pressure;BME280_temperature;BME280_humidity;BME280_pressure;Samples;Min_cycle;Max_cycle;Signal;HPM_P1;HPM_P2
2023/01/01 00:02:00;;;;;;;20.08;16.77;;;;;;;10.85;63.75;102763.80;1761751;80;21109;-57
2023/01/01 00:04:28;;;;;;;19.50;17.25;;;;;;;10.87;63.74;102765.10;1764531;80;21046;-57
2023/01/01 00:06:54;;;;;;;22.70;18.00;;;;;;;10.86;63.73;102766.83;1757622;80;21046;-57
2023/01/01 00:12:08;;;;;;;18.60;16.60;;;;;;;10.85;63.68;102762.49;1766996;80;20995;-57
2023/01/01 00:14:34;;;;;;;20.17;17.40;;;;;;;10.85;63.74;102758.59;1775430;80;21499;-57
2023/01/01 00:17:01;;;;;;;19.98;16.60;;;;;;;10.83;63.77;102759.00;1760914;80;21010;-58
2023/01/01 00:19:28;;;;;;;20.85;16.97;;;;;;;10.84;63.78;102765.94;1768034;80;21049;-57
2023/01/01 00:21:54;;;;;;;20.20;16.85;;;;;;;10.83;63.85;102762.91;1752161;81;21022;-57
2023/01/01 00:24:21;;;;;;;21.80;16.85;;;;;;;10.84;63.93;102765.94;1753574;80;21509;-57
2023/01/01 00:26:48;;;;;;;20.32;17.10;;;;;;;10.83;63.96;102769.84;1761660;80;21007;-57
2023/01/01 00:29:15;;;;;;;22.87;18.67;;;;;;;10.83;64.00;102769.42;1769207;80;21529;-57
2023/01/01 00:31:41;;;;;;;19.07;17.05;;;;;;;10.82;64.05;102770.27;1758338;80;21018;-57
2023/01/01 00:34:09;;;;;;;20.92;17.48;;;;;;;10.82;64.02;102780.68;1764103;80;21039;-57
2023/01/01 00:36:35;;;;;;;23.38;17.92;;;;;;;10.82;64.08;102783.28;1756823;80;21105;-57
2023/01/01 00:39:02;;;;;;;19.67;17.62;;;;;;;10.82;64.00;102783.28;1753863;80;21030;-57
2023/01/01 00:41:29;;;;;;;21.33;18.07;;;;;;;10.81;63.99;102782.86;1758827;80;21006;-57
2023/01/01 00:43:56;;;;;;;20.45;16.97;;;;;;;10.81;63.98;102776.34;1761073;80;21084;-57
2023/01/01 00:46:23;;;;;;;21.77;18.00;;;;;;;10.81;63.93;102770.26;1768372;80;21550;-57
2023/01/01 00:48:50;;;;;;;22.02;18.70;;;;;;;10.80;63.99;102762.86;1755686;80;21078;-57
2023/01/01 00:51:16;;;;;;;22.00;18.60;;;;;;;10.81;63.97;102764.63;1763757;80;21027;-57
2023/01/01 00:53:42;;;;;;;20.92;18.17;;;;;;;10.80;64.00;102762.02;1764207;80;21073;-57
2023/01/01 00:56:09;;;;;;;21.55;18.92;;;;;;;10.79;63.99;102766.34;1769142;80;21556;-57
2023/01/01 00:58:35;;;;;;;21.40;18.65;;;;;;;10.79;64.03;102762.44;1765347;80;21564;-57
2023/01/01 01:01:03;;;;;;;22.15;19.77;;;;;;;10.79;64.11;102765.05;1753480;80;21049;-57
2023/01/01 01:03:30;;;;;;;21.57;19.23;;;;;;;10.79;64.19;102759.84;1763251;80;21515;-57
2023/01/01 01:06:05;;;;;;;23.07;19.25;;;;;;;10.79;64.23;102762.44;1754100;80;21030;-57
2023/01/01 01:08:34;;;;;;;23.95;19.60;;;;;;;10.81;64.23;102765.05;1757241;80;21024;-57
2023/01/01 01:11:11;;;;;;;24.67;19.62;;;;;;;10.80;64.31;102766.77;1755003;80;21069;-57
2023/01/01 01:13:37;;;;;;;22.45;18.98;;;;;;;10.82;64.33;102761.60;1668531;84;21561;-57
2023/01/01 01:16:17;;;;;;;23.75;20.00;;;;;;;10.81;64.34;102765.93;1655611;85;21026;-57
2023/01/01 01:18:44;;;;;;;24.52;19.35;;;;;;;10.80;64.24;102756.36;1658537;85;21105;-57
2023/01/01 01:21:17;;;;;;;23.65;19.57;;;;;;;10.80;64.25;102751.15;1658334;85;21573;-57
2023/01/01 01:23:45;;;;;;;27.15;19.52;;;;;;;10.79;64.20;102752.02;1664468;85;21011;-57
2023/01/01 01:26:14;;;;;;;24.63;20.10;;;;;;;10.79;64.10;102748.54;1652545;85;21549;-57
2023/01/01 01:28:41;;;;;;;24.05;19.30;;;;;;;10.77;64.02;102755.05;1643273;85;21034;-57
2023/01/01 01:31:08;;;;;;;21.68;19.37;;;;;;;10.77;63.92;102762.86;1645023;85;21082;-57
2023/01/01 01:33:35;;;;;;;24.60;20.17;;;;;;;10.75;63.73;102762.39;1636956;85;21051;-58
2023/01/01 01:36:03;;;;;;;22.37;19.52;;;;;;;10.74;63.72;102763.27;1660537;85;21050;-57
2023/01/01 01:38:30;;;;;;;22.70;18.45;;;;;;;10.71;63.56;102760.20;1638220;85;21026;-57
2023/01/01 01:40:57;;;;;;;22.77;19.32;;;;;;;10.70;63.41;102758.44;1633764;85;21066;-58
2023/01/01 01:43:38;;;;;;;21.27;18.42;;;;;;;10.66;63.25;102755.36;1652334;85;21015;-57
2023/01/01 01:46:17;;;;;;;19.27;17.17;;;;;;;10.64;63.25;102754.47;1659122;85;21111;-57
2023/01/01 01:48:47;;;;;;;20.02;17.92;;;;;;;10.61;63.02;102749.25;1603258;88;21564;-57
2023/01/01 01:51:18;;;;;;;22.40;18.73;;;;;;;10.58;62.85;102753.11;1595613;87;21122;-57
2023/01/01 01:53:50;;;;;;;23.05;19.40;;;;;;;10.54;62.83;102749.62;1606292;87;21125;-57
2023/01/01 01:56:25;;;;;;;22.98;18.98;;;;;;;10.51;62.69;102751.30;1545322;92;21079;-57
2023/01/01 01:58:51;;;;;;;20.65;18.45;;;;;;;10.48;62.71;102752.58;1452541;96;21154;-57
2023/01/01 02:01:19;;;;;;;21.10;17.77;;;;;;;10.45;62.63;102750.81;1456642;96;21211;-57
2023/01/01 02:03:59;;;;;;;21.82;16.65;;;;;;;10.44;62.63;102757.31;1475165;96;21140;-57
2023/01/01 02:06:27;;;;;;;21.80;18.67;;;;;;;10.40;62.58;102756.84;1469542;96;21132;-58
2023/01/01 02:08:58;;;;;;;21.23;18.42;;;;;;;10.36;62.45;102752.03;1468151;96;21214;-58
2023/01/01 02:11:26;;;;;;;20.85;18.57;;;;;;;10.33;62.50;102749.81;1427825;99;21649;-57
2023/01/01 02:13:53;;;;;;;21.23;18.45;;;;;;;10.29;62.58;102748.91;1460565;96;21145;-58
2023/01/01 02:16:51;;;;;;;27.27;19.42;;;;;;;10.27;62.62;102739.33;1432348;99;21064;-57
2023/01/01 02:19:52;;;;;;;22.58;18.27;;;;;;;10.25;62.65;102750.16;1469610;96;21104;-57
2023/01/01 02:22:43;;;;;;;21.60;19.30;;;;;;;10.23;62.61;102753.16;1464062;96;21088;-57
2023/01/01 02:25:39;;;;;;;20.70;18.57;;;;;;;10.19;62.48;102754.88;1418905;98;21152;-57
2023/01/01 02:28:21;;;;;;;23.12;20.17;;;;;;;10.16;62.53;102749.61;1407281;99;21150;-57
2023/01/01 02:30:47;;;;;;;22.00;17.75;;;;;;;10.13;62.60;102748.72;1412421;99;21198;-57
2023/01/01 02:33:18;;;;;;;22.10;19.17;;;;;;;10.11;62.77;102745.22;1411138;98;21141;-58
2023/01/01 02:35:49;;;;;;;22.77;19.57;;;;;;;10.10;62.81;102746.95;1420565;99;21629;-57
2023/01/01 02:38:24;;;;;;;23.30;19.02;;;;;;;10.10;62.81;102743.46;1403491;101;21228;-57
2023/01/01 02:41:02;;;;;;;24.47;20.57;;;;;;;10.10;62.71;102746.06;1420214;99;21118;-57
2023/01/01 02:43:28;;;;;;;24.65;21.17;;;;;;;10.08;62.77;102749.04;1414887;99;21732;-58
2023/01/01 02:45:55;;;;;;;23.45;20.27;;;;;;;10.08;62.98;102737.34;1434460;98;21126;-57
2023/01/01 02:48:51;;;;;;;25.25;20.60;;;;;;;10.07;63.11;102735.61;1457963;96;21140;-57
2023/01/01 02:51:36;;;;;;;23.18;20.35;;;;;;;10.07;63.10;102730.41;1460762;96;21119;-57
2023/01/01 02:54:20;;;;;;;25.62;21.17;;;;;;;10.05;63.30;102732.12;1505518;93;21060;-57
2023/01/01 02:57:07;;;;;;;26.37;21.48;;;;;;;10.07;63.23;102729.11;1513513;93;21133;-57
2023/01/01 03:03:02;;;;;;;23.77;20.02;;;;;;;10.06;63.20;102720.84;1542174;91;21137;-57
2023/01/01 03:06:22;;;;;;;24.60;21.70;;;;;;;10.06;63.27;102714.34;1563613;90;21093;-57
2023/01/01 03:09:16;;;;;;;27.82;22.27;;;;;;;10.06;63.24;102710.44;1631689;85;21097;-57
2023/01/01 03:12:02;;;;;;;24.63;20.70;;;;;;;10.07;63.26;102707.87;1652265;85;21088;-57
2023/01/01 03:14:52;;;;;;;23.80;20.72;;;;;;;10.07;63.16;102704.39;1642869;86;21066;-57
2023/01/01 03:17:25;;;;;;;24.95;20.12;;;;;;;10.08;63.06;102709.61;1613759;88;21102;-57
2023/01/01 03:19:52;;;;;;;26.00;21.70;;;;;;;10.11;62.92;102712.29;1593685;89;21068;-57
2023/01/01 03:22:19;;;;;;;25.00;21.12;;;;;;;10.11;62.82;102708.81;1596665;89;21100;-57
2023/01/01 03:25:00;;;;;;;25.70;21.77;;;;;;;10.11;62.78;102709.69;1632273;88;21097;-57
2023/01/01 03:27:34;;;;;;;24.93;21.10;;;;;;;10.12;62.66;102705.37;1542493;91;21092;-57
2023/01/01 03:30:04;;;;;;;27.00;22.00;;;;;;;10.13;62.62;102705.80;1551581;91;21086;-56
2023/01/01 03:35:13;;;;;;;25.37;21.87;;;;;;;10.12;62.41;102715.77;1608695;87;21066;-57
2023/01/01 03:37:40;;;;;;;25.80;22.05;;;;;;;10.12;62.45;102718.37;1605942;87;21164;-57
2023/01/01 03:40:09;;;;;;;26.55;22.67;;;;;;;10.11;62.42;102719.21;1617442;87;21175;-57
2023/01/01 03:42:40;;;;;;;27.62;22.20;;;;;;;10.10;62.44;102730.45;1566205;88;21088;-57
2023/01/01 03:45:26;;;;;;;24.17;20.63;;;;;;;10.10;62.31;102729.16;1605564;89;21524;-57
2023/01/01 03:47:54;;;;;;;23.92;20.90;;;;;;;10.10;62.29;102722.66;1556540;91;21116;-57
2023/01/01 03:50:23;;;;;;;23.40;20.90;;;;;;;10.09;62.24;102716.98;1529681;93;21600;-57
2023/01/01 03:53:20;;;;;;;25.17;21.82;;;;;;;10.08;62.15;102713.92;1519071;93;21617;-57
2023/01/01 03:55:54;;;;;;;26.70;22.32;;;;;;;10.07;62.17;102713.50;1533740;92;21632;-57
2023/01/01 03:58:30;;;;;;;28.23;22.67;;;;;;;10.07;62.30;102713.50;1542860;92;21128;-57
2023/01/01 04:01:08;;;;;;;25.57;21.80;;;;;;;10.06;62.36;102708.72;1562470;90;21099;-57
2023/01/01 04:03:35;;;;;;;27.90;22.13;;;;;;;10.05;62.44;102711.31;1480644;95;21170;-57
2023/01/01 04:06:03;;;;;;;28.62;22.40;;;;;;;10.05;62.63;102714.79;1488064;95;21616;-57
2023/01/01 04:08:33;;;;;;;26.12;21.87;;;;;;;10.05;62.79;102712.19;1485114;95;21206;-57
2023/01/01 04:12:00;;;;;;;27.77;23.10;;;;;;;10.07;62.89;102712.20;1483177;95;21101;-57
2023/01/01 04:13:28;;;;;;;28.57;22.10;;;;;;;10.06;62.92;102713.03;1534624;92;21056;-57
2023/01/01 04:15:55;;;;;;;28.47;22.17;;;;;;;10.05;63.08;102715.20;1533068;92;21647;-57
2023/01/01 04:18:22;;;;;;;24.40;21.80;;;;;;;10.04;63.13;102723.44;1533507;91;21636;-57
2023/01/01 04:20:48;;;;;;;26.25;21.33;;;;;;;10.04;63.24;102722.55;1531325;92;21184;-57
2023/01/01 04:23:15;;;;;;;27.15;23.07;;;;;;;10.03;63.17;102718.22;1527436;92;21513;-57
2023/01/01 04:25:42;;;;;;;26.70;23.40;;;;;;;10.03;63.18;102713.91;1582378;89;21132;-57
2023/01/01 04:28:10;;;;;;;26.42;22.80;;;;;;;10.03;63.17;102716.50;1589327;89;21088;-57
2023/01/01 04:30:37;;;;;;;27.30;22.98;;;;;;;10.05;63.03;102724.31;1572192;90;21943;-57
2023/01/01 04:33:03;;;;;;;28.10;22.90;;;;;;;10.05;62.96;102724.31;1596328;89;21049;-57
2023/01/01 04:35:31;;;;;;;25.15;22.27;;;;;;;10.04;62.95;102726.03;1596973;88;21093;-57
2023/01/01 04:37:59;;;;;;;27.30;23.05;;;;;;;10.04;62.88;102729.05;1600107;88;21188;-57
2023/01/01 04:40:27;;;;;;;27.87;23.75;;;;;;;10.04;62.84;102732.95;1597336;88;21601;-57
2023/01/01 04:42:54;;;;;;;27.48;21.87;;;;;;;10.04;62.85;102742.06;1589097;89;21053;-57
2023/01/01 04:45:21;;;;;;;27.45;21.85;;;;;;;10.03;62.76;102741.63;1585019;87;21109;-57
2023/01/01 04:47:47;;;;;;;29.20;23.47;;;;;;;10.03;62.78;102744.23;1603296;88;21083;-57
2023/01/01 04:50:14;;;;;;;27.00;22.67;;;;;;;10.03;62.73;102748.13;1583660;88;21097;-57
2023/01/01 04:52:42;;;;;;;26.52;22.27;;;;;;;10.02;62.70;102744.66;1575800;89;21041;-57
2023/01/01 04:55:09;;;;;;;27.62;23.85;;;;;;;10.01;62.63;102741.62;1586657;88;21080;-57
2023/01/01 04:57:35;;;;;;;26.50;22.02;;;;;;;10.02;62.56;102750.27;1587610;89;21160;-56
2023/01/01 05:00:04;;;;;;;28.07;22.10;;;;;;;10.03;62.53;102749.44;1636604;80;21080;-57
2023/01/01 05:02:31;;;;;;;27.65;22.70;;;;;;;10.04;62.34;102753.77;1769494;80;21009;-57
2023/01/01 05:04:57;;;;;;;29.10;23.65;;;;;;;10.02;62.35;102761.97;1770054;80;21491;-57
2023/01/01 05:07:25;;;;;;;25.92;21.95;;;;;;;10.01;62.42;102761.55;1773239;80;21034;-57
2023/01/01 05:09:51;;;;;;;28.45;22.58;;;;;;;9.99;62.38;102758.05;1757096;81;21025;-57
2023/01/01 05:12:18;;;;;;;26.33;21.68;;;;;;;9.98;62.32;102765.39;1746204;80;21077;-57
2023/01/01 05:14:45;;;;;;;26.97;23.05;;;;;;;9.98;62.30;102771.89;1759506;81;21011;-57
2023/01/01 05:17:11;;;;;;;25.95;22.70;;;;;;;9.96;62.23;102772.30;1760251;80;21044;-57
2023/01/01 05:19:38;;;;;;;26.75;22.95;;;;;;;9.95;62.19;102769.27;1752284;80;21043;-57
2023/01/01 05:22:06;;;;;;;24.87;21.17;;;;;;;9.94;62.15;102768.81;1755074;80;21552;-57
2023/01/01 05:24:35;;;;;;;27.90;22.62;;;;;;;9.93;62.16;102771.86;1755284;81;21050;-57
2023/01/01 05:27:01;;;;;;;26.42;22.17;;;;;;;9.92;62.10;102777.91;1756742;80;21045;-57
2023/01/01 05:29:27;;;;;;;27.27;23.10;;;;;;;9.89;62.04;102779.59;1761297;80;21034;-57
2023/01/01 05:31:54;;;;;;;27.85;23.52;;;;;;;9.88;61.94;102779.13;1747955;81;21513;-57
2023/01/01 05:34:20;;;;;;;29.57;24.27;;;;;;;9.85;61.92;102782.14;1758648;80;21049;-57
2023/01/01 05:36:47;;;;;;;29.60;24.87;;;;;;;9.83;62.04;102766.95;1747996;80;21592;-57
2023/01/01 05:39:13;;;;;;;29.85;24.30;;;;;;;9.82;62.15;102760.02;1760646;80;21034;-57
2023/01/01 05:41:40;;;;;;;33.92;26.02;;;;;;;9.79;62.16;102746.96;1764549;80;21647;-57
2023/01/01 05:44:07;;;;;;;29.87;25.15;;;;;;;9.76;62.32;102752.14;1753038;80;21053;-57
2023/01/01 05:46:34;;;;;;;30.72;26.62;;;;;;;9.77;62.39;102757.77;1768757;80;21074;-57
2023/01/01 05:49:02;;;;;;;30.05;25.25;;;;;;;9.76;62.52;102768.16;1767426;80;21370;-57
2023/01/01 05:51:29;;;;;;;31.30;25.52;;;;;;;9.76;62.68;102770.34;1766107;80;21042;-57
2023/01/01 05:53:57;;;;;;;29.85;24.55;;;;;;;9.76;62.73;102779.44;1760291;80;21536;-57
2023/01/01 05:56:23;;;;;;;33.48;25.43;;;;;;;9.77;62.75;102775.97;1746596;81;21077;-57
2023/01/01 05:58:51;;;;;;;28.73;25.27;;;;;;;9.78;62.75;102768.63;1756116;80;21077;-57
2023/01/01 06:01:28;;;;;;;29.82;24.72;;;;;;;9.79;62.74;102770.78;1756855;80;21034;-57
2023/01/01 06:03:56;;;;;;;30.05;25.10;;;;;;;9.80;62.66;102772.55;1665609;84;21627;-57
2023/01/01 06:06:27;;;;;;;27.22;24.27;;;;;;;9.79;62.73;102771.66;1668580;84;21155;-57
2023/01/01 06:09:03;;;;;;;30.12;24.50;;;;;;;9.80;62.73;102771.24;1647144;85;21079;-58
2023/01/01 06:11:30;;;;;;;30.50;25.45;;;;;;;9.80;62.57;102768.23;1601377;87;21083;-57
2023/01/01 06:13:58;;;;;;;28.05;23.75;;;;;;;9.81;62.50;102766.05;1610247;88;21556;-57
2023/01/01 06:16:26;;;;;;;30.43;25.08;;;;;;;9.82;62.51;102774.73;1616280;88;21079;-57
2023/01/01 06:18:52;;;;;;;27.70;23.77;;;;;;;9.82;62.63;102779.52;1608556;88;21098;-57
2023/01/01 06:21:22;;;;;;;30.43;25.45;;;;;;;9.85;62.57;102786.46;1605546;87;21567;-57
2023/01/01 06:23:50;;;;;;;29.82;24.63;;;;;;;9.87;62.69;102783.91;1609352;88;21098;-57
2023/01/01 06:26:23;;;;;;;30.75;24.70;;;;;;;9.88;62.63;102784.33;1612196;88;21162;-57
2023/01/01 06:28:50;;;;;;;26.05;22.70;;;;;;;9.91;62.52;102781.79;1601459;88;21113;-57
2023/01/01 06:31:19;;;;;;;28.20;24.12;;;;;;;9.93;62.59;102791.78;1623832;88;21077;-57
2023/01/01 06:33:47;;;;;;;27.22;23.20;;;;;;;9.95;62.60;102796.58;1608914;88;21131;-57
2023/01/01 06:36:15;;;;;;;29.07;24.15;;;;;;;10.00;62.56;102809.20;1610206;88;21069;-57
2023/01/01 06:38:45;;;;;;;27.17;24.12;;;;;;;10.00;62.71;102810.50;1553071;91;21146;-57
2023/01/01 06:41:15;;;;;;;28.00;23.15;;;;;;;10.02;62.83;102800.98;1571798;90;21574;-57
2023/01/01 06:43:42;;;;;;;28.15;23.45;;;;;;;10.03;62.75;102798.43;1573583;90;21059;-57
2023/01/01 06:46:19;;;;;;;30.77;23.42;;;;;;;10.05;62.82;102791.94;1593191;89;21095;-57
2023/01/01 06:48:48;;;;;;;29.12;23.38;;;;;;;10.09;62.91;102791.12;1597037;88;21048;-57
2023/01/01 06:51:22;;;;;;;29.63;24.43;;;;;;;10.12;62.78;102792.51;1616477;87;21096;-57
2023/01/01 06:53:49;;;;;;;29.05;24.60;;;;;;;10.16;62.78;102802.09;1604370;88;21654;-57
2023/01/01 06:56:15;;;;;;;28.62;24.05;;;;;;;10.19;62.90;102798.21;1591358;88;21197;-57
2023/01/01 06:58:42;;;;;;;29.40;24.77;;;;;;;10.24;62.81;102801.77;1595815;88;21158;-57
2023/01/01 07:01:11;;;;;;;29.77;24.65;;;;;;;10.27;62.76;102796.58;1612589;87;21130;-57
2023/01/01 07:03:39;;;;;;;29.10;23.83;;;;;;;10.29;62.77;102797.47;1619443;87;21057;-57
2023/01/01 07:06:06;;;;;;;26.90;23.92;;;;;;;10.32;62.70;102793.61;1622825;87;21548;-57
2023/01/01 07:08:34;;;;;;;28.47;24.50;;;;;;;10.36;62.68;102791.49;1608398;86;21077;-57
2023/01/01 07:11:01;;;;;;;29.55;24.72;;;;;;;10.39;62.74;102795.41;1607048;87;21589;-57
2023/01/01 07:13:28;;;;;;;32.00;24.85;;;;;;;10.42;62.76;102798.06;1616662;87;21074;-57
2023/01/01 07:15:57;;;;;;;31.40;26.23;;;;;;;10.47;62.69;102798.55;1610981;87;21042;-57
2023/01/01 07:18:23;;;;;;;28.62;23.80;;;;;;;10.51;62.60;102792.94;1619033;87;21121;-57
2023/01/01 07:20:58;;;;;;;29.07;24.20;;;;;;;10.52;62.58;102799.48;1618950;87;21081;-57
2023/01/01 07:23:26;;;;;;;29.52;25.02;;;;;;;10.54;62.53;102804.70;1548130;91;21089;-57
2023/01/01 07:25:54;;;;;;;27.48;23.62;;;;;;;10.56;62.66;102804.29;1548815;92;21122;-57
2023/01/01 07:28:22;;;;;;;27.98;24.40;;;;;;;10.59;62.64;102810.84;1537395;92;21109;-57
2023/01/01 07:30:49;;;;;;;29.70;24.02;;;;;;;10.62;62.60;102814.34;1545765;91;21650;-57
2023/01/01 07:33:19;;;;;;;28.70;24.72;;;;;;;10.65;62.50;102813.06;1549256;91;21137;-57
2023/01/01 07:35:47;;;;;;;27.87;24.57;;;;;;;10.67;62.53;102814.41;1549944;92;21127;-57
2023/01/01 07:38:14;;;;;;;36.70;27.70;;;;;;;10.71;62.58;102820.08;1543874;91;21102;-57
2023/01/01 07:40:41;;;;;;;42.73;31.60;;;;;;;10.74;62.62;102826.61;1594519;87;21166;-57
2023/01/01 07:43:11;;;;;;;34.73;27.62;;;;;;;10.78;62.57;102833.59;1630493;86;21084;-57
2023/01/01 07:45:37;;;;;;;31.02;27.00;;;;;;;10.82;62.53;102837.13;1650938;86;21105;-57
2023/01/01 07:48:05;;;;;;;29.45;25.57;;;;;;;10.84;62.50;102837.56;1650140;86;21090;-57
2023/01/01 07:50:32;;;;;;;31.87;25.55;;;;;;;10.87;62.62;102828.48;1651473;84;21102;-57
2023/01/01 07:52:59;;;;;;;29.85;26.62;;;;;;;10.90;62.52;102829.80;1683979;84;21114;-57
2023/01/01 07:55:26;;;;;;;29.15;25.77;;;;;;;10.93;62.68;102835.06;1662382;84;21097;-57
2023/01/01 07:57:52;;;;;;;28.67;25.68;;;;;;;10.97;62.76;102843.34;1674835;84;21049;-57
2023/01/01 08:00:20;;;;;;;31.57;27.42;;;;;;;11.03;62.91;102855.12;1660029;84;21066;-57
2023/01/01 08:02:47;;;;;;;33.02;28.17;;;;;;;11.06;62.97;102856.47;1689158;84;21553;-57
2023/01/01 08:05:14;;;;;;;30.17;25.90;;;;;;;11.12;63.00;102860.44;1669811;84;21069;-57
2023/01/01 08:07:46;;;;;;;28.38;25.27;;;;;;;11.16;63.05;102866.12;1663781;84;21078;-57
2023/01/01 08:10:13;;;;;;;29.65;26.35;;;;;;;11.19;63.23;102855.70;1676089;84;21066;-57
2023/01/01 08:12:40;;;;;;;32.38;26.50;;;;;;;11.26;63.26;102857.52;1675938;85;21038;-57
2023/01/01 08:15:08;;;;;;;29.67;26.48;;;;;;;11.30;63.12;102869.72;1691131;84;21089;-57
2023/01/01 08:17:37;;;;;;;32.28;26.60;;;;;;;11.36;63.04;102871.07;1681069;84;21560;-57
2023/01/01 08:20:05;;;;;;;30.52;27.20;;;;;;;11.40;62.96;102862.41;1713265;80;21010;-57
2023/01/01 08:22:32;;;;;;;31.95;27.58;;;;;;;11.45;62.84;102862.03;1782202;80;21077;-57
2023/01/01 08:24:58;;;;;;;30.45;27.02;;;;;;;11.50;62.88;102854.68;1753779;80;21517;-57
2023/01/01 08:27:25;;;;;;;31.52;26.75;;;;;;;11.56;62.75;102853.42;1750881;80;21033;-56
2023/01/01 08:29:52;;;;;;;31.42;27.07;;;;;;;11.62;62.73;102850.86;1767328;80;21537;-57
2023/01/01 08:32:18;;;;;;;32.33;26.73;;;;;;;11.67;62.71;102847.86;1766801;80;21073;-57
2023/01/01 08:34:45;;;;;;;30.82;26.30;;;;;;;11.73;62.64;102855.73;1728306;81;21063;-57
2023/01/01 08:37:12;;;;;;;30.85;27.13;;;;;;;11.78;62.68;102858.83;1778965;79;21065;-57
2023/01/01 08:39:39;;;;;;;31.77;28.10;;;;;;;11.85;62.71;102867.58;1759990;80;21109;-57
2023/01/01 08:42:07;;;;;;;34.85;27.37;;;;;;;11.90;62.78;102862.82;1763117;79;21116;-56
2023/01/01 08:44:34;;;;;;;29.42;25.32;;;;;;;11.96;62.65;102855.45;1766196;80;21589;-57
2023/01/01 08:47:00;;;;;;;29.37;25.77;;;;;;;12.00;62.75;102853.30;1754332;80;21038;-56
2023/01/01 08:49:27;;;;;;;31.68;26.97;;;;;;;12.06;62.83;102858.55;1760842;80;21030;-57
2023/01/01 08:51:54;;;;;;;31.75;27.00;;;;;;;12.12;62.65;102855.97;1722686;82;21581;-57
2023/01/01 08:54:20;;;;;;;32.55;26.55;;;;;;;12.19;62.53;102857.77;1755055;80;20995;-56
2023/01/01 08:56:47;;;;;;;30.55;26.42;;;;;;;12.25;62.29;102848.65;1763412;80;21082;-57
2023/01/01 08:59:13;;;;;;;30.45;25.90;;;;;;;12.31;62.10;102851.28;1743186;80;21018;-57
2023/01/01 09:01:40;;;;;;;30.27;25.08;;;;;;;12.38;62.10;102849.58;1757433;80;21034;-56
2023/01/01 09:04:11;;;;;;;29.67;25.52;;;;;;;12.44;62.08;102845.27;1768645;80;21024;-57
2023/01/01 09:06:35;;;;;;;29.05;25.90;;;;;;;12.52;61.93;102843.97;1764453;80;21033;-57
2023/01/01 09:09:02;;;;;;;29.77;26.27;;;;;;;12.59;61.90;102834.84;1759821;80;21047;-57
2023/01/01 09:11:28;;;;;;;30.37;25.72;;;;;;;12.65;61.88;102833.55;1713558;82;21477;-56
2023/01/01 09:13:55;;;;;;;30.85;24.98;;;;;;;12.73;61.88;102844.92;1691616;83;21018;-57
2023/01/01 09:16:22;;;;;;;29.65;24.63;;;;;;;12.81;61.78;102854.08;1695651;83;21045;-56
2023/01/01 09:18:49;;;;;;;28.12;24.02;;;;;;;12.89;61.55;102849.73;1714238;82;21521;-57
2023/01/01 09:21:15;;;;;;;28.55;24.10;;;;;;;12.95;61.40;102846.70;1760946;80;21038;-56
2023/01/01 09:23:42;;;;;;;27.70;24.20;;;;;;;13.03;61.35;102848.01;1773614;80;21023;-57
2023/01/01 09:26:10;;;;;;;26.25;23.38;;;;;;;13.12;61.29;102849.80;1757117;80;21050;-56
2023/01/01 09:28:36;;;;;;;28.10;24.47;;;;;;;13.19;61.30;102848.95;1756682;81;21038;-56
2023/01/01 09:31:05;;;;;;;27.02;22.65;;;;;;;13.28;61.18;102842.39;1758882;80;21115;-57
2023/01/01 09:33:33;;;;;;;24.63;21.85;;;;;;;13.37;60.93;102841.10;1756017;80;21057;-58
2023/01/01 09:36:28;;;;;;;25.70;21.55;;;;;;;13.46;60.79;102846.31;1760367;80;21010;-57
2023/01/01 09:38:57;;;;;;;24.57;21.97;;;;;;;13.53;60.65;102834.98;1763674;80;21518;-57
2023/01/01 09:42:08;;;;;;;23.27;20.88;;;;;;;13.62;60.49;102834.52;1755099;80;21031;-56
2023/01/01 09:45:12;;;;;;;25.23;21.77;;;;;;;13.70;60.38;102832.77;1764633;81;21070;-57
2023/01/01 09:47:45;;;;;;;23.22;20.77;;;;;;;13.81;60.15;102824.90;1756282;80;21097;-57
2023/01/01 09:50:18;;;;;;;26.35;23.38;;;;;;;13.91;60.02;102820.07;1759217;80;21512;-57
2023/01/01 09:52:56;;;;;;;27.70;24.43;;;;;;;13.99;59.81;102815.72;1755440;80;20979;-57
2023/01/01 09:55:31;;;;;;;29.45;24.10;;;;;;;14.04;59.58;102823.09;1751118;80;21084;-57
2023/01/01 09:57:58;;;;;;;26.77;22.58;;;;;;;14.10;59.38;102823.08;1754305;80;21090;-57
2023/01/01 10:00:25;;;;;;;28.70;24.02;;;;;;;14.14;59.21;102826.11;1771908;80;21062;-57
2023/01/01 10:03:17;;;;;;;27.90;23.52;;;;;;;14.16;59.13;102821.74;1765132;80;21538;-57
2023/01/01 10:06:08;;;;;;;26.87;23.50;;;;;;;14.20;58.97;102823.94;1764336;80;21026;-57
2023/01/01 10:09:20;;;;;;;26.52;23.55;;;;;;;14.20;58.84;102820.84;1733295;80;21085;-57
2023/01/01 10:12:13;;;;;;;25.55;22.85;;;;;;;14.17;58.89;102816.95;1758599;80;21514;-58
2023/01/01 10:14:48;;;;;;;26.73;23.00;;;;;;;14.15;58.89;102814.78;1742033;80;20991;-57
2023/01/01 10:17:26;;;;;;;25.97;23.22;;;;;;;14.13;58.86;102808.68;1728189;82;21058;-57
2023/01/01 10:20:00;;;;;;;25.60;22.85;;;;;;;14.10;58.83;102803.44;1672850;85;21076;-57
2023/01/01 10:22:36;;;;;;;30.55;24.12;;;;;;;14.06;58.82;102801.71;1615612;87;21054;-57
2023/01/01 10:25:15;;;;;;;27.60;23.50;;;;;;;14.04;58.96;102798.23;1574404;89;21624;-57
2023/01/01 10:27:52;;;;;;;26.60;22.10;;;;;;;14.01;59.00;102791.72;1530075;92;21611;-57
2023/01/01 10:30:21;;;;;;;27.52;23.70;;;;;;;13.98;59.10;102787.78;1537676;92;21073;-57
2023/01/01 10:32:50;;;;;;;25.40;22.48;;;;;;;13.96;59.17;102788.66;1508185;93;21139;-57
2023/01/01 10:35:30;;;;;;;26.23;22.90;;;;;;;13.95;59.29;102800.87;1445041;99;21074;-57
2023/01/01 10:37:58;;;;;;;24.90;21.65;;;;;;;13.95;59.28;102789.09;1444966;99;21141;-57
2023/01/01 10:40:25;;;;;;;23.80;21.30;;;;;;;13.98;59.20;102792.14;1444812;99;21114;-57
2023/01/01 10:42:55;;;;;;;25.00;22.15;;;;;;;13.98;59.19;102786.47;1444916;99;21620;-57
2023/01/01 10:45:39;;;;;;;23.83;20.82;;;;;;;14.03;59.31;102785.16;1403720;102;21125;-57
2023/01/01 10:48:24;;;;;;;23.50;20.92;;;;;;;14.06;59.34;102784.70;1393898;101;21672;-57
2023/01/01 10:50:58;;;;;;;23.27;20.52;;;;;;;14.11;59.19;102773.78;1395834;101;21144;-57
2023/01/01 10:53:42;;;;;;;24.45;20.00;;;;;;;14.15;59.21;102771.58;1399688;102;21198;-57
2023/01/01 10:56:17;;;;;;;22.30;19.62;;;;;;;14.22;59.15;102778.52;1397537;103;21203;-57
2023/01/01 10:58:53;;;;;;;24.37;21.75;;;;;;;14.28;59.13;102776.32;1459182;97;21109;-57
2023/01/01 11:01:30;;;;;;;26.00;21.93;;;;;;;14.33;59.09;102779.80;1453497;97;21636;-57
2023/01/01 11:04:01;;;;;;;24.98;21.30;;;;;;;14.37;58.96;102774.98;1441982;98;21101;-57
2023/01/01 11:06:34;;;;;;;;;;;;;;;14.39;59.01;102770.17;1448212;98;21110;-57
2023/01/01 11:09:19;;;;;;;23.70;21.00;;;;;;;14.42;59.12;102775.84;1422413;98;20932;-57
2023/01/01 11:11:47;;;;;;;27.25;21.73;;;;;;;14.46;59.26;102772.33;1429339;98;21137;-57
2023/01/01 11:14:21;;;;;;;30.20;22.77;;;;;;;14.50;59.37;102764.88;1449894;98;21167;-58
2023/01/01 11:16:47;;;;;;;28.62;23.90;;;;;;;14.53;59.48;102765.72;1378785;102;21168;-57
2023/01/01 11:19:28;;;;;;;26.62;23.10;;;;;;;14.55;59.44;102761.34;1381122;102;21680;-57
2023/01/01 11:21:54;;;;;;;29.20;22.62;;;;;;;14.60;59.29;102764.81;1419499;97;21613;-57
2023/01/01 11:24:27;;;;;;;26.80;23.62;;;;;;;14.62;59.22;102770.03;1449984;97;21164;-57
2023/01/01 11:27:23;;;;;;;26.95;23.32;;;;;;;14.61;59.33;102765.22;1438069;98;21124;-57
2023/01/01 11:29:52;;;;;;;25.15;22.32;;;;;;;14.60;59.49;102760.88;1450588;95;21175;-57
2023/01/01 11:32:27;;;;;;;27.10;23.20;;;;;;;14.60;59.53;102756.95;1522439;92;21109;-57
2023/01/01 11:35:00;;;;;;;25.52;22.77;;;;;;;14.59;59.58;102755.20;1528971;92;22332;-57
2023/01/01 11:37:33;;;;;;;25.55;22.75;;;;;;;14.58;59.58;102752.16;1524739;92;21121;-57